Estación Meteorológica Peña el Pijo (Robertgarden) [ 06/14/24 09:53:54 CEST ]

Fecha Hora Presion(HPa) Temp (°C) Humedad % Rocio (°C) Viento ( m/s) Direccion Lluvia 1Hora(mm) Lluvia 24H(mm) LLuvia Total(mm)
2009-Sep-23 01:01:13 1016.500 14.9 75 10.5         377.62
2009-Sep-23 02:01:13 1016.000 14.9 76 10.7         377.62
2009-Sep-23 03:01:43 1015.800 13.9 82 10.9         377.62
2009-Sep-23 04:05:18 1015.500 13.8 84 11.1         377.62
2009-Sep-23 05:01:11 1015.100 13.4 87 11.3         377.62
2009-Sep-23 06:01:13 1015.100 13.3 88 11.3         377.62
2009-Sep-23 07:01:16 1015.000 13.3 88 11.3         377.62
2009-Sep-23 08:01:15 1014.900 13.3 89 11.5         377.62
2009-Sep-23 09:01:12 1015.200 13.4 88 11.4         377.62
2009-Sep-23 10:01:16 1014.900 13.8 87 11.7         377.62
2009-Sep-23 11:01:16 1015.500 13.9 84 11.2         377.62
2009-Sep-23 12:01:16 1015.700 13.4 88 11.4     0.51 0.51 378.14
2009-Sep-23 13:01:13 1015.600 13.7 90 12.1     1.03 1.55 379.17
2009-Sep-23 14:01:11 1015.700 15.1 87 13.0     0.51 2.07 379.69
2009-Sep-23 15:01:21 1015.200 16.1 87 13.9       2.07 379.69
2009-Sep-23 16:01:17 1015.300 15.3 86 13.0 1.9 ENE   2.07 379.69
2009-Sep-23 17:01:11 1015.300 15.3 89 13.5     0.51 2.59 380.21
2009-Sep-23 18:01:12 1015.600 14.9 91 13.5     2.07 4.66 382.28
2009-Sep-23 19:01:14 1015.600 15.2 89 13.4     0.51 5.18 382.80
2009-Sep-23 20:01:16 1015.600 14.6 91 13.2       5.18 382.80
2009-Sep-23 21:01:13 1016.100 14.1 91 12.7       5.18 382.80
2009-Sep-23 22:01:12 1016.300 13.8 92 12.5       5.18 382.80
2009-Sep-23 23:01:11 1016.500 13.3 93 12.2       5.18 382.80

Temperatura Máxima:16°    Temperatura Mínima:13°
Presión Máxima:1016.500 Hpa    Presión Mínima:1014.900 Hpa


Volver